createdAt,value
2023-03-27T00:03:01.912Z,74.66
2023-03-27T00:08:09.579Z,74.43
2023-03-27T00:13:13.864Z,74.54
2023-03-27T00:18:17.692Z,74.59
2023-03-27T00:23:22.644Z,74.91
2023-03-27T00:28:28.941Z,74.80
2023-03-27T00:33:32.441Z,74.38
2023-03-27T00:38:37.053Z,74.73
2023-03-27T00:43:44.064Z,74.52
2023-03-27T00:48:52.304Z,74.54
2023-03-27T00:53:57.558Z,74.61
2023-03-27T00:59:02.504Z,74.63
2023-03-27T01:04:07.038Z,74.93
2023-03-27T01:09:10.252Z,74.92
2023-03-27T01:14:28.830Z,74.82
2023-03-27T01:19:42.161Z,74.97
2023-03-27T01:25:19.782Z,75.05
2023-03-27T01:30:49.300Z,75.26
2023-03-27T01:36:02.806Z,75.40
2023-03-27T01:41:16.513Z,75.78
2023-03-27T01:46:32.039Z,75.99
2023-03-27T01:51:44.426Z,75.92
2023-03-27T01:56:53.959Z,75.71
2023-03-27T02:02:12.148Z,76.10
2023-03-27T02:07:22.313Z,76.29
2023-03-27T02:12:32.914Z,76.27
2023-03-27T02:17:40.417Z,76.61
2023-03-27T02:22:50.995Z,76.68
2023-03-27T02:28:20.411Z,76.90
2023-03-27T02:33:36.120Z,77.07
2023-03-27T02:39:03.898Z,77.26
2023-03-27T02:44:32.940Z,77.70
2023-03-27T02:49:43.085Z,78.15
2023-03-27T02:54:54.075Z,78.34
2023-03-27T03:00:00.889Z,78.18
2023-03-27T03:05:18.040Z,78.17
2023-03-27T03:10:21.828Z,78.19
2023-03-27T03:15:25.241Z,78.35
2023-03-27T03:20:31.522Z,78.40
2023-03-27T03:25:35.764Z,78.34
2023-03-27T03:30:42.283Z,78.59
2023-03-27T03:35:48.601Z,78.64
2023-03-27T03:40:54.409Z,78.78
2023-03-27T03:45:58.482Z,78.64
2023-03-27T03:51:01.930Z,78.94
2023-03-27T03:56:05.986Z,79.02
2023-03-27T04:01:09.369Z,79.16
2023-03-27T04:06:12.883Z,79.12
2023-03-27T04:11:16.399Z,79.30
2023-03-27T04:16:20.078Z,79.08
2023-03-27T04:21:27.008Z,79.29
2023-03-27T04:26:30.377Z,79.28
2023-03-27T04:31:34.803Z,79.44
2023-03-27T04:36:38.283Z,79.21
2023-03-27T04:41:41.699Z,79.13
2023-03-27T04:46:49.289Z,78.99
2023-03-27T04:51:52.663Z,79.04
2023-03-27T04:56:56.162Z,79.31
2023-03-27T05:02:04.499Z,79.37
2023-03-27T05:07:07.879Z,79.21
2023-03-27T05:12:11.489Z,79.13
2023-03-27T05:17:16.850Z,78.93
2023-03-27T05:22:20.269Z,78.77
2023-03-27T05:27:24.391Z,78.61
2023-03-27T05:32:27.928Z,78.44
2023-03-27T05:37:31.322Z,78.26
2023-03-27T05:42:34.834Z,77.88
2023-03-27T05:47:47.132Z,77.75
2023-03-27T05:53:04.705Z,77.73
2023-03-27T05:58:10.256Z,77.71
2023-03-27T06:03:15.091Z,77.07
2023-03-27T06:08:18.730Z,76.90
2023-03-27T06:13:22.144Z,76.76
2023-03-27T06:18:25.558Z,76.39
2023-03-27T06:23:30.300Z,76.23
2023-03-27T06:28:34.020Z,76.42
2023-03-27T06:33:40.208Z,75.60
2023-03-27T06:38:44.232Z,75.48
2023-03-27T06:43:47.643Z,75.50
2023-03-27T06:48:52.132Z,75.57
2023-03-27T06:53:56.006Z,75.22
2023-03-27T06:58:59.530Z,75.20
2023-03-27T07:04:03.151Z,75.43
2023-03-27T07:09:06.453Z,75.35
2023-03-27T07:14:10.164Z,75.32
2023-03-27T07:19:13.678Z,75.14
2023-03-27T07:24:17.295Z,75.25
2023-03-27T07:29:21.119Z,75.46
2023-03-27T07:34:24.763Z,75.50
2023-03-27T07:39:28.054Z,75.14
2023-03-27T07:44:31.672Z,74.87
2023-03-27T07:49:39.944Z,74.77
2023-03-27T07:54:44.438Z,74.89
2023-03-27T07:59:48.363Z,74.99
2023-03-27T08:04:55.645Z,74.73
2023-03-27T08:09:59.282Z,74.59
2023-03-27T08:15:03.028Z,74.44
2023-03-27T08:20:09.794Z,74.38
2023-03-27T08:25:13.821Z,73.87
2023-03-27T08:30:17.737Z,73.24
2023-03-27T08:35:21.538Z,72.78
2023-03-27T08:40:29.085Z,71.75
2023-03-27T08:45:39.559Z,71.20
2023-03-27T08:50:54.134Z,70.33
2023-03-27T08:55:57.726Z,69.81
2023-03-27T09:01:11.818Z,68.93
2023-03-27T09:06:38.576Z,68.74
2023-03-27T09:12:01.855Z,68.16
2023-03-27T09:17:17.701Z,68.28
2023-03-27T09:22:28.853Z,67.78
2023-03-27T09:27:37.933Z,66.20
2023-03-27T09:32:43.198Z,66.06
2023-03-27T09:37:58.692Z,65.86
2023-03-27T09:43:11.495Z,65.29
2023-03-27T09:48:23.601Z,65.76
2023-03-27T09:53:28.245Z,64.61
2023-03-27T09:58:37.292Z,64.43
2023-03-27T10:03:49.386Z,62.74
2023-03-27T10:08:55.593Z,63.61
2023-03-27T10:14:01.814Z,64.86
2023-03-27T10:19:05.382Z,66.00
2023-03-27T10:24:20.071Z,66.93
2023-03-27T10:29:26.365Z,67.86
2023-03-27T10:34:40.231Z,67.82
2023-03-27T10:39:43.814Z,68.38
2023-03-27T10:44:48.781Z,68.89
2023-03-27T10:50:04.874Z,69.05
2023-03-27T10:55:23.442Z,69.55
2023-03-27T11:00:54.428Z,70.32
2023-03-27T11:06:00.375Z,71.68
2023-03-27T11:11:33.072Z,72.70
2023-03-27T11:16:41.502Z,73.86
2023-03-27T11:21:53.721Z,73.82
2023-03-27T11:26:59.957Z,73.57
2023-03-27T11:32:18.162Z,74.04
2023-03-27T11:37:43.381Z,74.92
2023-03-27T11:42:48.136Z,74.52
2023-03-27T11:48:12.912Z,74.68
2023-03-27T11:53:57.426Z,74.51
2023-03-27T11:59:22.254Z,74.67
2023-03-27T12:04:48.796Z,74.49
2023-03-27T12:10:10.462Z,74.56
2023-03-27T12:15:37.706Z,74.01
2023-03-27T12:20:52.800Z,73.27
2023-03-27T12:26:09.144Z,72.79
2023-03-27T12:31:58.207Z,72.60
2023-03-27T12:37:04.599Z,71.27
2023-03-27T12:42:15.571Z,70.88
2023-03-27T12:47:25.171Z,70.42
2023-03-27T12:52:28.841Z,70.18
2023-03-27T12:57:41.743Z,69.46
2023-03-27T13:03:19.730Z,68.00
2023-03-27T13:08:23.318Z,67.62
2023-03-27T13:14:05.029Z,66.16
2023-03-27T13:19:30.056Z,65.95
2023-03-27T13:24:52.613Z,65.90
2023-03-27T13:29:58.164Z,66.04
2023-03-27T13:35:21.355Z,65.65
2023-03-27T13:40:36.879Z,64.09
2023-03-27T13:45:48.381Z,62.47
2023-03-27T13:51:13.576Z,62.82
2023-03-27T13:56:37.596Z,62.97
2023-03-27T14:02:08.792Z,63.68
2023-03-27T14:07:43.926Z,63.66
2023-03-27T14:12:55.806Z,63.42
2023-03-27T14:18:26.662Z,62.36
2023-03-27T14:23:42.071Z,60.25
2023-03-27T14:28:55.210Z,59.28
2023-03-27T14:34:04.344Z,57.98
2023-03-27T14:39:18.419Z,58.70
2023-03-27T14:44:24.179Z,57.31
2023-03-27T14:49:36.192Z,53.04
2023-03-27T14:54:52.233Z,52.57
2023-03-27T14:59:58.995Z,51.49
2023-03-27T15:05:12.198Z,51.25
2023-03-27T15:10:20.933Z,52.95
2023-03-27T15:15:43.085Z,53.09
2023-03-27T15:20:46.955Z,53.91
2023-03-27T15:26:05.107Z,54.27
2023-03-27T15:31:10.187Z,54.96
2023-03-27T15:36:27.087Z,54.27
2023-03-27T15:41:33.374Z,54.89
2023-03-27T15:46:52.370Z,55.76
2023-03-27T15:51:57.756Z,56.56
2023-03-27T15:57:09.862Z,56.54
2023-03-27T16:02:17.302Z,55.54
2023-03-27T16:07:27.729Z,55.20
2023-03-27T16:12:34.535Z,54.75
2023-03-27T16:17:45.204Z,54.35
2023-03-27T16:22:49.412Z,53.33
2023-03-27T16:27:58.764Z,52.70
2023-03-27T16:33:03.609Z,51.68
2023-03-27T16:38:07.335Z,51.73
2023-03-27T16:43:11.057Z,51.55
2023-03-27T16:48:14.991Z,51.79
2023-03-27T16:53:18.501Z,51.96
2023-03-27T16:58:22.216Z,51.11
2023-03-27T17:03:25.633Z,50.41
2023-03-27T17:08:31.398Z,51.12
2023-03-27T17:13:36.243Z,51.92
2023-03-27T17:18:39.685Z,52.06
2023-03-27T17:23:46.354Z,52.39
2023-03-27T17:28:49.867Z,52.34
2023-03-27T17:33:53.342Z,52.66
2023-03-27T17:38:56.793Z,52.75
2023-03-27T17:44:00.215Z,53.14
2023-03-27T17:49:04.145Z,53.70
2023-03-27T17:54:07.546Z,53.51
2023-03-27T17:59:10.855Z,53.74
2023-03-27T18:04:14.404Z,54.09
2023-03-27T18:09:17.786Z,54.19
2023-03-27T18:14:21.514Z,54.14
2023-03-27T18:19:25.536Z,54.74
2023-03-27T18:24:29.050Z,54.78
2023-03-27T18:29:34.068Z,55.10
2023-03-27T18:34:37.411Z,54.88
2023-03-27T18:39:40.896Z,54.96
2023-03-27T18:44:44.859Z,55.64
2023-03-27T18:49:48.465Z,55.91
2023-03-27T18:54:51.891Z,56.37
2023-03-27T18:59:55.596Z,56.31
2023-03-27T19:04:58.909Z,56.27
2023-03-27T19:10:02.662Z,56.24
2023-03-27T19:15:17.222Z,56.39
2023-03-27T19:20:23.777Z,56.43
2023-03-27T19:25:27.922Z,57.21
2023-03-27T19:30:32.638Z,57.18
2023-03-27T19:35:36.224Z,57.34
2023-03-27T19:40:39.804Z,57.76
2023-03-27T19:45:58.378Z,57.79
2023-03-27T19:51:08.206Z,57.71
2023-03-27T19:56:11.683Z,57.64
2023-03-27T20:01:15.267Z,57.67
2023-03-27T20:06:19.803Z,57.80
2023-03-27T20:11:23.520Z,58.14
2023-03-27T20:16:28.252Z,58.26
2023-03-27T20:21:39.881Z,58.34
2023-03-27T20:26:48.239Z,58.59
2023-03-27T20:31:51.969Z,58.69
2023-03-27T20:36:59.274Z,58.79
2023-03-27T20:42:02.544Z,58.98
2023-03-27T20:47:12.585Z,59.05
2023-03-27T20:52:18.990Z,59.02
2023-03-27T20:57:22.835Z,59.32
2023-03-27T21:02:26.366Z,59.52
2023-03-27T21:07:34.397Z,59.89
2023-03-27T21:12:39.879Z,60.01
2023-03-27T21:17:44.059Z,60.14
2023-03-27T21:22:52.987Z,60.37
2023-03-27T21:27:56.531Z,60.48
2023-03-27T21:32:59.941Z,60.34
2023-03-27T21:38:04.676Z,60.33
2023-03-27T21:43:09.252Z,60.70
2023-03-27T21:48:12.580Z,61.02
2023-03-27T21:53:17.459Z,60.76
2023-03-27T21:58:21.078Z,60.85
2023-03-27T22:03:25.923Z,61.10
2023-03-27T22:08:29.234Z,61.31
2023-03-27T22:13:36.432Z,61.25
2023-03-27T22:18:40.768Z,61.01
2023-03-27T22:23:45.030Z,61.77
2023-03-27T22:28:48.316Z,61.63
2023-03-27T22:33:52.241Z,61.71
2023-03-27T22:38:55.682Z,61.97
2023-03-27T22:44:01.460Z,62.07
2023-03-27T22:49:04.937Z,62.16
2023-03-27T22:54:08.554Z,62.51
2023-03-27T22:59:12.738Z,62.32
2023-03-27T23:04:16.300Z,62.22
2023-03-27T23:09:19.637Z,62.31
2023-03-27T23:14:23.639Z,62.98
2023-03-27T23:19:27.053Z,62.53
2023-03-27T23:24:30.671Z,63.03
2023-03-27T23:29:34.495Z,62.73
2023-03-27T23:34:37.806Z,62.68
2023-03-27T23:39:41.728Z,62.60
2023-03-27T23:44:45.139Z,63.18
2023-03-27T23:49:49.065Z,62.98
2023-03-27T23:54:52.710Z,63.48
2023-03-27T23:59:56.100Z,63.45
